sensor_id;sensor_type;location;lat;lon;timestamp;temperature;humidity
4308;DHT22;2167;53.448;9.984;2024-03-29T00:00:41;7.40;1.00
4308;DHT22;2167;53.448;9.984;2024-03-29T00:03:10;7.40;1.00
4308;DHT22;2167;53.448;9.984;2024-03-29T00:05:37;7.40;1.00
4308;DHT22;2167;53.448;9.984;2024-03-29T00:08:06;7.40;1.00
4308;DHT22;2167;53.448;9.984;2024-03-29T00:10:33;7.40;1.00
4308;DHT22;2167;53.448;9.984;2024-03-29T00:12:59;7.40;1.00
4308;DHT22;2167;53.448;9.984;2024-03-29T00:15:25;7.40;1.00
4308;DHT22;2167;53.448;9.984;2024-03-29T00:17:50;7.40;1.00
4308;DHT22;2167;53.448;9.984;2024-03-29T00:20:16;7.30;1.00
4308;DHT22;2167;53.448;9.984;2024-03-29T00:22:42;7.40;1.00
4308;DHT22;2167;53.448;9.984;2024-03-29T00:25:08;7.30;1.00
4308;DHT22;2167;53.448;9.984;2024-03-29T00:27:34;7.30;1.00
4308;DHT22;2167;53.448;9.984;2024-03-29T00:29:59;7.20;1.00
4308;DHT22;2167;53.448;9.984;2024-03-29T00:32:25;7.20;1.00
4308;DHT22;2167;53.448;9.984;2024-03-29T00:34:52;7.20;1.00
4308;DHT22;2167;53.448;9.984;2024-03-29T00:37:18;7.10;1.00
4308;DHT22;2167;53.448;9.984;2024-03-29T00:39:44;7.10;1.00
4308;DHT22;2167;53.448;9.984;2024-03-29T00:42:10;7.10;1.00
4308;DHT22;2167;53.448;9.984;2024-03-29T00:44:38;7.10;1.00
4308;DHT22;2167;53.448;9.984;2024-03-29T00:47:04;7.10;1.00
4308;DHT22;2167;53.448;9.984;2024-03-29T00:49:30;7.10;1.00
4308;DHT22;2167;53.448;9.984;2024-03-29T00:51:56;7.00;1.00
4308;DHT22;2167;53.448;9.984;2024-03-29T00:54:22;7.00;1.00
4308;DHT22;2167;53.448;9.984;2024-03-29T00:56:50;7.10;1.00
4308;DHT22;2167;53.448;9.984;2024-03-29T00:59:16;7.10;1.00
4308;DHT22;2167;53.448;9.984;2024-03-29T01:01:42;7.10;1.00
4308;DHT22;2167;53.448;9.984;2024-03-29T01:04:08;7.00;1.00
4308;DHT22;2167;53.448;9.984;2024-03-29T01:06:34;7.00;1.00
4308;DHT22;2167;53.448;9.984;2024-03-29T01:09:00;7.00;1.00
4308;DHT22;2167;53.448;9.984;2024-03-29T01:11:26;7.00;1.00
4308;DHT22;2167;53.448;9.984;2024-03-29T01:13:52;7.00;1.00
4308;DHT22;2167;53.448;9.984;2024-03-29T01:16:18;6.90;1.00
4308;DHT22;2167;53.448;9.984;2024-03-29T01:18:43;6.90;1.00
4308;DHT22;2167;53.448;9.984;2024-03-29T01:21:09;6.90;1.00
4308;DHT22;2167;53.448;9.984;2024-03-29T01:23:35;6.90;1.00
4308;DHT22;2167;53.448;9.984;2024-03-29T01:26:00;6.90;1.00
4308;DHT22;2167;53.448;9.984;2024-03-29T01:28:26;6.80;1.00
4308;DHT22;2167;53.448;9.984;2024-03-29T01:30:53;6.80;1.00
4308;DHT22;2167;53.448;9.984;2024-03-29T01:33:18;6.80;1.00
4308;DHT22;2167;53.448;9.984;2024-03-29T01:35:44;6.80;1.00
4308;DHT22;2167;53.448;9.984;2024-03-29T01:38:10;6.80;1.00
4308;DHT22;2167;53.448;9.984;2024-03-29T01:40:36;6.70;1.00
4308;DHT22;2167;53.448;9.984;2024-03-29T01:43:02;6.70;1.00
4308;DHT22;2167;53.448;9.984;2024-03-29T01:45:29;6.70;1.00
4308;DHT22;2167;53.448;9.984;2024-03-29T01:47:55;6.70;1.00
4308;DHT22;2167;53.448;9.984;2024-03-29T01:50:21;6.70;1.00
4308;DHT22;2167;53.448;9.984;2024-03-29T01:52:47;6.70;1.00
4308;DHT22;2167;53.448;9.984;2024-03-29T01:55:13;6.70;1.00
4308;DHT22;2167;53.448;9.984;2024-03-29T01:57:39;6.60;1.00
4308;DHT22;2167;53.448;9.984;2024-03-29T02:00:06;6.70;1.00
4308;DHT22;2167;53.448;9.984;2024-03-29T02:02:33;6.70;1.00
4308;DHT22;2167;53.448;9.984;2024-03-29T02:04:59;6.70;1.00
4308;DHT22;2167;53.448;9.984;2024-03-29T02:07:25;6.60;1.00
4308;DHT22;2167;53.448;9.984;2024-03-29T02:09:51;6.60;1.00
4308;DHT22;2167;53.448;9.984;2024-03-29T02:12:16;6.70;1.00
4308;DHT22;2167;53.448;9.984;2024-03-29T02:14:42;6.60;1.00
4308;DHT22;2167;53.448;9.984;2024-03-29T02:17:08;6.60;1.00
4308;DHT22;2167;53.448;9.984;2024-03-29T02:19:34;6.60;1.00
4308;DHT22;2167;53.448;9.984;2024-03-29T02:22:00;6.60;1.00
4308;DHT22;2167;53.448;9.984;2024-03-29T02:24:27;6.60;1.00
4308;DHT22;2167;53.448;9.984;2024-03-29T02:26:54;6.60;1.00
4308;DHT22;2167;53.448;9.984;2024-03-29T02:29:21;6.60;1.00
4308;DHT22;2167;53.448;9.984;2024-03-29T02:31:47;6.60;1.00
4308;DHT22;2167;53.448;9.984;2024-03-29T02:34:12;6.60;1.00
4308;DHT22;2167;53.448;9.984;2024-03-29T02:36:38;6.60;1.00
4308;DHT22;2167;53.448;9.984;2024-03-29T02:39:03;6.60;1.00
4308;DHT22;2167;53.448;9.984;2024-03-29T02:41:29;6.60;1.00
4308;DHT22;2167;53.448;9.984;2024-03-29T02:43:55;6.50;1.00
4308;DHT22;2167;53.448;9.984;2024-03-29T02:46:21;6.50;1.00
4308;DHT22;2167;53.448;9.984;2024-03-29T02:48:47;6.50;1.00
4308;DHT22;2167;53.448;9.984;2024-03-29T02:51:12;6.50;1.00
4308;DHT22;2167;53.448;9.984;2024-03-29T02:53:38;6.50;1.00
4308;DHT22;2167;53.448;9.984;2024-03-29T02:56:04;6.40;1.00
4308;DHT22;2167;53.448;9.984;2024-03-29T02:58:34;6.40;1.00
4308;DHT22;2167;53.448;9.984;2024-03-29T03:01:08;6.40;1.00
4308;DHT22;2167;53.448;9.984;2024-03-29T03:03:34;6.40;1.00
4308;DHT22;2167;53.448;9.984;2024-03-29T03:06:00;6.30;1.00
4308;DHT22;2167;53.448;9.984;2024-03-29T03:08:25;6.30;1.00
4308;DHT22;2167;53.448;9.984;2024-03-29T03:11:09;6.30;1.00
4308;DHT22;2167;53.448;9.984;2024-03-29T03:13:35;6.30;1.00
4308;DHT22;2167;53.448;9.984;2024-03-29T03:16:01;6.20;1.00
4308;DHT22;2167;53.448;9.984;2024-03-29T03:18:26;6.30;1.00
4308;DHT22;2167;53.448;9.984;2024-03-29T03:20:52;6.30;1.00
4308;DHT22;2167;53.448;9.984;2024-03-29T03:23:18;6.20;1.00
4308;DHT22;2167;53.448;9.984;2024-03-29T03:25:44;6.20;1.00
4308;DHT22;2167;53.448;9.984;2024-03-29T03:28:10;6.20;1.00
4308;DHT22;2167;53.448;9.984;2024-03-29T03:30:42;6.20;1.00
4308;DHT22;2167;53.448;9.984;2024-03-29T03:33:07;6.20;1.00
4308;DHT22;2167;53.448;9.984;2024-03-29T03:35:33;6.20;1.00
4308;DHT22;2167;53.448;9.984;2024-03-29T03:37:59;6.20;1.00
4308;DHT22;2167;53.448;9.984;2024-03-29T03:40:24;6.30;1.00
4308;DHT22;2167;53.448;9.984;2024-03-29T03:42:50;6.20;1.00
4308;DHT22;2167;53.448;9.984;2024-03-29T03:45:15;6.20;1.00
4308;DHT22;2167;53.448;9.984;2024-03-29T03:47:41;6.20;1.00
4308;DHT22;2167;53.448;9.984;2024-03-29T03:50:07;6.30;1.00
4308;DHT22;2167;53.448;9.984;2024-03-29T03:52:32;6.20;1.00
4308;DHT22;2167;53.448;9.984;2024-03-29T03:54:58;6.10;1.00
4308;DHT22;2167;53.448;9.984;2024-03-29T03:57:23;6.20;1.00
4308;DHT22;2167;53.448;9.984;2024-03-29T03:59:50;6.10;1.00
4308;DHT22;2167;53.448;9.984;2024-03-29T04:02:15;6.10;1.00
4308;DHT22;2167;53.448;9.984;2024-03-29T04:04:41;6.10;1.00
4308;DHT22;2167;53.448;9.984;2024-03-29T04:07:07;6.10;1.00
4308;DHT22;2167;53.448;9.984;2024-03-29T04:09:32;6.10;1.00
4308;DHT22;2167;53.448;9.984;2024-03-29T04:11:58;6.10;1.00
4308;DHT22;2167;53.448;9.984;2024-03-29T04:14:23;6.10;1.00
4308;DHT22;2167;53.448;9.984;2024-03-29T04:16:49;6.10;1.00
4308;DHT22;2167;53.448;9.984;2024-03-29T04:19:14;6.10;1.00
4308;DHT22;2167;53.448;9.984;2024-03-29T04:21:40;6.10;1.00
4308;DHT22;2167;53.448;9.984;2024-03-29T04:24:06;6.10;1.00
4308;DHT22;2167;53.448;9.984;2024-03-29T04:26:35;6.10;1.00
4308;DHT22;2167;53.448;9.984;2024-03-29T04:29:01;6.10;1.00
4308;DHT22;2167;53.448;9.984;2024-03-29T04:31:26;6.20;1.00
4308;DHT22;2167;53.448;9.984;2024-03-29T04:33:52;6.20;1.00
4308;DHT22;2167;53.448;9.984;2024-03-29T04:36:17;6.20;1.00
4308;DHT22;2167;53.448;9.984;2024-03-29T04:38:43;6.20;1.00
4308;DHT22;2167;53.448;9.984;2024-03-29T04:41:09;6.30;1.00
4308;DHT22;2167;53.448;9.984;2024-03-29T04:43:35;6.30;1.00
4308;DHT22;2167;53.448;9.984;2024-03-29T04:46:10;6.30;1.00
4308;DHT22;2167;53.448;9.984;2024-03-29T04:48:41;6.20;1.00
4308;DHT22;2167;53.448;9.984;2024-03-29T04:51:07;6.30;1.00
4308;DHT22;2167;53.448;9.984;2024-03-29T04:53:35;6.30;1.00
4308;DHT22;2167;53.448;9.984;2024-03-29T04:56:00;6.30;1.00
4308;DHT22;2167;53.448;9.984;2024-03-29T04:58:26;6.30;1.00
4308;DHT22;2167;53.448;9.984;2024-03-29T05:00:52;6.30;1.00
4308;DHT22;2167;53.448;9.984;2024-03-29T05:03:19;6.30;1.00
4308;DHT22;2167;53.448;9.984;2024-03-29T05:05:45;6.40;1.00
4308;DHT22;2167;53.448;9.984;2024-03-29T05:08:11;6.40;1.00
4308;DHT22;2167;53.448;9.984;2024-03-29T05:10:37;6.30;1.00
4308;DHT22;2167;53.448;9.984;2024-03-29T05:13:03;6.40;1.00
4308;DHT22;2167;53.448;9.984;2024-03-29T05:15:28;6.40;1.00
4308;DHT22;2167;53.448;9.984;2024-03-29T05:17:54;6.40;1.00
4308;DHT22;2167;53.448;9.984;2024-03-29T05:20:20;6.40;1.00
4308;DHT22;2167;53.448;9.984;2024-03-29T05:22:45;6.40;1.00
4308;DHT22;2167;53.448;9.984;2024-03-29T05:25:11;6.50;1.00
4308;DHT22;2167;53.448;9.984;2024-03-29T05:27:36;6.50;1.00
4308;DHT22;2167;53.448;9.984;2024-03-29T05:30:03;6.50;1.00
4308;DHT22;2167;53.448;9.984;2024-03-29T05:32:32;6.50;1.00
4308;DHT22;2167;53.448;9.984;2024-03-29T05:34:57;6.60;1.00
4308;DHT22;2167;53.448;9.984;2024-03-29T05:37:23;6.60;1.00
4308;DHT22;2167;53.448;9.984;2024-03-29T05:39:51;6.50;1.00
4308;DHT22;2167;53.448;9.984;2024-03-29T05:42:27;6.60;1.00
4308;DHT22;2167;53.448;9.984;2024-03-29T05:44:53;6.60;1.00
4308;DHT22;2167;53.448;9.984;2024-03-29T05:47:19;6.70;1.00
4308;DHT22;2167;53.448;9.984;2024-03-29T05:49:44;6.70;1.00
4308;DHT22;2167;53.448;9.984;2024-03-29T05:52:10;6.70;1.00
4308;DHT22;2167;53.448;9.984;2024-03-29T05:54:42;6.70;1.00
4308;DHT22;2167;53.448;9.984;2024-03-29T05:57:08;6.70;1.00
4308;DHT22;2167;53.448;9.984;2024-03-29T05:59:34;6.80;1.00
4308;DHT22;2167;53.448;9.984;2024-03-29T06:02:00;6.80;1.00
4308;DHT22;2167;53.448;9.984;2024-03-29T06:04:26;6.90;1.00
4308;DHT22;2167;53.448;9.984;2024-03-29T06:07:03;6.90;1.00
4308;DHT22;2167;53.448;9.984;2024-03-29T06:09:29;6.90;1.00
4308;DHT22;2167;53.448;9.984;2024-03-29T06:11:56;7.00;1.00
4308;DHT22;2167;53.448;9.984;2024-03-29T06:14:25;7.00;1.00
4308;DHT22;2167;53.448;9.984;2024-03-29T06:17:26;7.10;1.00
4308;DHT22;2167;53.448;9.984;2024-03-29T06:19:53;7.10;1.00
4308;DHT22;2167;53.448;9.984;2024-03-29T06:22:22;7.10;1.00
4308;DHT22;2167;53.448;9.984;2024-03-29T06:24:48;7.10;1.00
4308;DHT22;2167;53.448;9.984;2024-03-29T06:27:14;7.20;1.00
4308;DHT22;2167;53.448;9.984;2024-03-29T06:29:44;7.20;1.00
4308;DHT22;2167;53.448;9.984;2024-03-29T06:32:10;7.30;1.00
4308;DHT22;2167;53.448;9.984;2024-03-29T06:34:35;7.30;1.00
4308;DHT22;2167;53.448;9.984;2024-03-29T06:37:02;7.40;1.00
4308;DHT22;2167;53.448;9.984;2024-03-29T06:39:27;7.40;1.00
4308;DHT22;2167;53.448;9.984;2024-03-29T06:41:53;7.40;1.00
4308;DHT22;2167;53.448;9.984;2024-03-29T06:44:18;7.40;1.00
4308;DHT22;2167;53.448;9.984;2024-03-29T06:46:45;7.50;1.00
4308;DHT22;2167;53.448;9.984;2024-03-29T06:49:11;7.50;1.00
4308;DHT22;2167;53.448;9.984;2024-03-29T06:51:36;7.50;1.00
4308;DHT22;2167;53.448;9.984;2024-03-29T06:54:02;7.60;1.00
4308;DHT22;2167;53.448;9.984;2024-03-29T06:56:28;7.70;1.00
4308;DHT22;2167;53.448;9.984;2024-03-29T06:58:55;7.80;1.00
4308;DHT22;2167;53.448;9.984;2024-03-29T07:01:20;7.90;1.00
4308;DHT22;2167;53.448;9.984;2024-03-29T07:03:46;8.00;1.00
4308;DHT22;2167;53.448;9.984;2024-03-29T07:06:12;8.00;1.00
4308;DHT22;2167;53.448;9.984;2024-03-29T07:08:37;8.00;1.00
4308;DHT22;2167;53.448;9.984;2024-03-29T07:11:03;8.10;1.00
4308;DHT22;2167;53.448;9.984;2024-03-29T07:13:29;8.20;1.00
4308;DHT22;2167;53.448;9.984;2024-03-29T07:15:57;8.30;1.00
4308;DHT22;2167;53.448;9.984;2024-03-29T07:18:23;8.30;1.00
4308;DHT22;2167;53.448;9.984;2024-03-29T07:20:49;8.40;1.00
4308;DHT22;2167;53.448;9.984;2024-03-29T07:23:16;8.40;1.00
4308;DHT22;2167;53.448;9.984;2024-03-29T07:25:44;8.50;1.00
4308;DHT22;2167;53.448;9.984;2024-03-29T07:28:10;8.60;1.00
4308;DHT22;2167;53.448;9.984;2024-03-29T07:30:36;8.60;1.00
4308;DHT22;2167;53.448;9.984;2024-03-29T07:33:04;8.70;1.00
4308;DHT22;2167;53.448;9.984;2024-03-29T07:35:29;8.70;1.00
4308;DHT22;2167;53.448;9.984;2024-03-29T07:37:55;8.70;1.00
4308;DHT22;2167;53.448;9.984;2024-03-29T07:40:22;8.80;1.00
4308;DHT22;2167;53.448;9.984;2024-03-29T07:42:48;8.90;1.00
4308;DHT22;2167;53.448;9.984;2024-03-29T07:45:13;8.90;1.00
4308;DHT22;2167;53.448;9.984;2024-03-29T07:47:39;8.90;1.00
4308;DHT22;2167;53.448;9.984;2024-03-29T07:50:05;9.00;1.00
4308;DHT22;2167;53.448;9.984;2024-03-29T07:52:33;9.00;1.00
4308;DHT22;2167;53.448;9.984;2024-03-29T07:54:58;9.00;1.00
4308;DHT22;2167;53.448;9.984;2024-03-29T07:57:25;9.10;1.00
4308;DHT22;2167;53.448;9.984;2024-03-29T07:59:51;9.10;1.00
4308;DHT22;2167;53.448;9.984;2024-03-29T08:02:16;9.30;1.00
4308;DHT22;2167;53.448;9.984;2024-03-29T08:04:42;9.40;1.00
4308;DHT22;2167;53.448;9.984;2024-03-29T08:07:09;9.40;1.00
4308;DHT22;2167;53.448;9.984;2024-03-29T08:09:34;9.50;1.00
4308;DHT22;2167;53.448;9.984;2024-03-29T08:12:00;9.50;1.00
4308;DHT22;2167;53.448;9.984;2024-03-29T08:14:25;9.60;1.00
4308;DHT22;2167;53.448;9.984;2024-03-29T08:16:53;9.60;1.00
4308;DHT22;2167;53.448;9.984;2024-03-29T08:19:19;9.60;1.00
4308;DHT22;2167;53.448;9.984;2024-03-29T08:21:45;9.70;1.00
4308;DHT22;2167;53.448;9.984;2024-03-29T08:24:10;9.70;1.00
4308;DHT22;2167;53.448;9.984;2024-03-29T08:26:36;9.80;1.00
4308;DHT22;2167;53.448;9.984;2024-03-29T08:29:02;9.80;1.00
4308;DHT22;2167;53.448;9.984;2024-03-29T08:31:28;9.90;1.00
4308;DHT22;2167;53.448;9.984;2024-03-29T08:33:54;10.00;1.00
4308;DHT22;2167;53.448;9.984;2024-03-29T08:36:19;10.10;1.00
4308;DHT22;2167;53.448;9.984;2024-03-29T08:38:45;10.00;1.00
4308;DHT22;2167;53.448;9.984;2024-03-29T08:41:12;10.10;1.00
4308;DHT22;2167;53.448;9.984;2024-03-29T08:43:37;10.10;1.00
4308;DHT22;2167;53.448;9.984;2024-03-29T08:46:03;10.10;1.00
4308;DHT22;2167;53.448;9.984;2024-03-29T08:48:29;10.10;1.00
4308;DHT22;2167;53.448;9.984;2024-03-29T08:51:04;10.20;1.00
4308;DHT22;2167;53.448;9.984;2024-03-29T08:53:30;10.20;1.00
4308;DHT22;2167;53.448;9.984;2024-03-29T08:55:55;10.20;1.00
4308;DHT22;2167;53.448;9.984;2024-03-29T08:58:21;10.30;1.00
4308;DHT22;2167;53.448;9.984;2024-03-29T09:00:55;10.20;1.00
4308;DHT22;2167;53.448;9.984;2024-03-29T09:03:22;10.30;1.00
4308;DHT22;2167;53.448;9.984;2024-03-29T09:05:48;10.30;1.00
4308;DHT22;2167;53.448;9.984;2024-03-29T09:08:14;10.30;1.00
4308;DHT22;2167;53.448;9.984;2024-03-29T09:10:40;10.20;1.00
4308;DHT22;2167;53.448;9.984;2024-03-29T09:13:06;10.20;1.00
4308;DHT22;2167;53.448;9.984;2024-03-29T09:15:33;10.20;1.00
4308;DHT22;2167;53.448;9.984;2024-03-29T09:17:58;10.20;1.00
4308;DHT22;2167;53.448;9.984;2024-03-29T09:20:28;10.20;1.00
4308;DHT22;2167;53.448;9.984;2024-03-29T09:22:53;10.20;1.00
4308;DHT22;2167;53.448;9.984;2024-03-29T09:25:19;10.20;1.00
4308;DHT22;2167;53.448;9.984;2024-03-29T09:27:47;10.20;1.00
4308;DHT22;2167;53.448;9.984;2024-03-29T09:30:14;10.20;1.00
4308;DHT22;2167;53.448;9.984;2024-03-29T09:32:40;10.20;1.00
4308;DHT22;2167;53.448;9.984;2024-03-29T09:35:06;10.20;1.00
4308;DHT22;2167;53.448;9.984;2024-03-29T09:37:32;10.20;1.00
4308;DHT22;2167;53.448;9.984;2024-03-29T09:40:04;10.10;1.00
4308;DHT22;2167;53.448;9.984;2024-03-29T09:42:32;10.10;1.00
4308;DHT22;2167;53.448;9.984;2024-03-29T09:44:59;10.10;1.00
4308;DHT22;2167;53.448;9.984;2024-03-29T09:47:27;10.10;1.00
4308;DHT22;2167;53.448;9.984;2024-03-29T09:49:53;10.00;1.00
4308;DHT22;2167;53.448;9.984;2024-03-29T09:52:20;10.10;1.00
4308;DHT22;2167;53.448;9.984;2024-03-29T09:54:46;10.10;1.00
4308;DHT22;2167;53.448;9.984;2024-03-29T09:57:12;10.10;1.00
4308;DHT22;2167;53.448;9.984;2024-03-29T09:59:38;10.10;1.00
4308;DHT22;2167;53.448;9.984;2024-03-29T10:02:17;10.10;1.00
4308;DHT22;2167;53.448;9.984;2024-03-29T10:04:46;10.00;1.00
4308;DHT22;2167;53.448;9.984;2024-03-29T10:07:14;9.90;1.00
4308;DHT22;2167;53.448;9.984;2024-03-29T10:09:42;10.00;1.00
4308;DHT22;2167;53.448;9.984;2024-03-29T10:12:08;10.00;1.00
4308;DHT22;2167;53.448;9.984;2024-03-29T10:14:44;10.10;1.00
4308;DHT22;2167;53.448;9.984;2024-03-29T10:17:17;10.10;1.00
4308;DHT22;2167;53.448;9.984;2024-03-29T10:19:43;10.10;1.00
4308;DHT22;2167;53.448;9.984;2024-03-29T10:22:09;10.20;1.00
4308;DHT22;2167;53.448;9.984;2024-03-29T10:24:36;10.20;1.00
4308;DHT22;2167;53.448;9.984;2024-03-29T10:27:02;10.20;1.00
4308;DHT22;2167;53.448;9.984;2024-03-29T10:29:31;10.20;1.00
4308;DHT22;2167;53.448;9.984;2024-03-29T10:31:56;10.20;1.00
4308;DHT22;2167;53.448;9.984;2024-03-29T10:34:24;10.20;1.00
4308;DHT22;2167;53.448;9.984;2024-03-29T10:36:50;10.30;1.00
4308;DHT22;2167;53.448;9.984;2024-03-29T10:39:16;10.40;1.00
4308;DHT22;2167;53.448;9.984;2024-03-29T10:41:43;10.40;1.00
4308;DHT22;2167;53.448;9.984;2024-03-29T10:44:10;10.40;1.00
4308;DHT22;2167;53.448;9.984;2024-03-29T10:46:40;10.40;1.00
4308;DHT22;2167;53.448;9.984;2024-03-29T10:49:09;10.50;1.00
4308;DHT22;2167;53.448;9.984;2024-03-29T10:51:38;10.60;1.00
4308;DHT22;2167;53.448;9.984;2024-03-29T10:54:05;10.60;1.00
4308;DHT22;2167;53.448;9.984;2024-03-29T10:56:33;10.60;1.00
4308;DHT22;2167;53.448;9.984;2024-03-29T10:59:05;10.70;1.00
4308;DHT22;2167;53.448;9.984;2024-03-29T11:01:32;10.70;1.00
4308;DHT22;2167;53.448;9.984;2024-03-29T11:04:05;10.80;1.00
4308;DHT22;2167;53.448;9.984;2024-03-29T11:06:36;10.80;1.00
4308;DHT22;2167;53.448;9.984;2024-03-29T11:09:07;10.90;1.00
4308;DHT22;2167;53.448;9.984;2024-03-29T11:11:46;11.10;1.00
4308;DHT22;2167;53.448;9.984;2024-03-29T11:14:20;11.20;1.00
4308;DHT22;2167;53.448;9.984;2024-03-29T11:16:46;11.20;1.00
4308;DHT22;2167;53.448;9.984;2024-03-29T11:19:14;11.20;1.00
4308;DHT22;2167;53.448;9.984;2024-03-29T11:21:41;11.20;1.00
4308;DHT22;2167;53.448;9.984;2024-03-29T11:24:10;11.20;1.00
4308;DHT22;2167;53.448;9.984;2024-03-29T11:26:35;11.10;1.00
4308;DHT22;2167;53.448;9.984;2024-03-29T11:29:01;11.10;1.00
4308;DHT22;2167;53.448;9.984;2024-03-29T11:31:27;11.10;1.00
4308;DHT22;2167;53.448;9.984;2024-03-29T11:33:57;11.20;1.00
4308;DHT22;2167;53.448;9.984;2024-03-29T11:36:24;11.30;1.00
4308;DHT22;2167;53.448;9.984;2024-03-29T11:38:52;11.30;1.00
4308;DHT22;2167;53.448;9.984;2024-03-29T11:41:27;11.40;1.00
4308;DHT22;2167;53.448;9.984;2024-03-29T11:43:55;11.60;1.00
4308;DHT22;2167;53.448;9.984;2024-03-29T11:46:22;11.70;1.00
4308;DHT22;2167;53.448;9.984;2024-03-29T11:48:48;11.70;1.00
4308;DHT22;2167;53.448;9.984;2024-03-29T11:51:19;11.90;1.00
4308;DHT22;2167;53.448;9.984;2024-03-29T11:53:47;11.90;1.00
4308;DHT22;2167;53.448;9.984;2024-03-29T11:56:13;11.90;1.00
4308;DHT22;2167;53.448;9.984;2024-03-29T11:58:40;11.90;1.00
4308;DHT22;2167;53.448;9.984;2024-03-29T12:01:05;11.80;1.00
4308;DHT22;2167;53.448;9.984;2024-03-29T12:03:32;11.90;1.00
4308;DHT22;2167;53.448;9.984;2024-03-29T12:05:59;11.90;1.00
4308;DHT22;2167;53.448;9.984;2024-03-29T12:08:31;12.00;1.00
4308;DHT22;2167;53.448;9.984;2024-03-29T12:11:01;12.10;1.00
4308;DHT22;2167;53.448;9.984;2024-03-29T12:13:27;12.10;1.00
4308;DHT22;2167;53.448;9.984;2024-03-29T12:15:53;12.20;1.00
4308;DHT22;2167;53.448;9.984;2024-03-29T12:18:21;12.20;1.00
4308;DHT22;2167;53.448;9.984;2024-03-29T12:20:47;12.30;1.00
4308;DHT22;2167;53.448;9.984;2024-03-29T12:23:16;12.40;1.00
4308;DHT22;2167;53.448;9.984;2024-03-29T12:25:42;12.40;1.00
4308;DHT22;2167;53.448;9.984;2024-03-29T12:28:09;12.60;1.00
4308;DHT22;2167;53.448;9.984;2024-03-29T12:30:35;12.60;1.00
4308;DHT22;2167;53.448;9.984;2024-03-29T12:33:03;12.60;1.00
4308;DHT22;2167;53.448;9.984;2024-03-29T12:35:29;12.70;1.00
4308;DHT22;2167;53.448;9.984;2024-03-29T12:38:01;12.70;1.00
4308;DHT22;2167;53.448;9.984;2024-03-29T12:40:29;12.80;1.00
4308;DHT22;2167;53.448;9.984;2024-03-29T12:43:03;12.90;1.00
4308;DHT22;2167;53.448;9.984;2024-03-29T12:45:28;13.00;1.00
4308;DHT22;2167;53.448;9.984;2024-03-29T12:47:54;13.00;1.00
4308;DHT22;2167;53.448;9.984;2024-03-29T12:50:26;13.00;1.00
4308;DHT22;2167;53.448;9.984;2024-03-29T12:53:00;13.00;1.00
4308;DHT22;2167;53.448;9.984;2024-03-29T12:55:28;13.10;1.00
4308;DHT22;2167;53.448;9.984;2024-03-29T12:57:56;13.20;1.00
4308;DHT22;2167;53.448;9.984;2024-03-29T13:00:22;13.20;1.00
4308;DHT22;2167;53.448;9.984;2024-03-29T13:02:49;13.30;1.00
4308;DHT22;2167;53.448;9.984;2024-03-29T13:05:15;13.40;1.00
4308;DHT22;2167;53.448;9.984;2024-03-29T13:07:41;13.50;1.00
4308;DHT22;2167;53.448;9.984;2024-03-29T13:10:07;13.60;1.00
4308;DHT22;2167;53.448;9.984;2024-03-29T13:12:41;13.60;1.00
4308;DHT22;2167;53.448;9.984;2024-03-29T13:15:19;13.70;1.00
4308;DHT22;2167;53.448;9.984;2024-03-29T13:17:45;13.60;1.00
4308;DHT22;2167;53.448;9.984;2024-03-29T13:20:12;13.60;1.00
4308;DHT22;2167;53.448;9.984;2024-03-29T13:22:38;13.50;1.00
4308;DHT22;2167;53.448;9.984;2024-03-29T13:25:05;13.60;1.00
4308;DHT22;2167;53.448;9.984;2024-03-29T13:27:31;13.70;1.00
4308;DHT22;2167;53.448;9.984;2024-03-29T13:29:57;13.60;1.00
4308;DHT22;2167;53.448;9.984;2024-03-29T13:32:22;13.40;1.00
4308;DHT22;2167;53.448;9.984;2024-03-29T13:34:48;13.30;1.00
4308;DHT22;2167;53.448;9.984;2024-03-29T13:37:13;13.30;1.00
4308;DHT22;2167;53.448;9.984;2024-03-29T13:39:39;13.30;1.00
4308;DHT22;2167;53.448;9.984;2024-03-29T13:42:05;13.40;1.00
4308;DHT22;2167;53.448;9.984;2024-03-29T13:44:30;13.40;1.00
4308;DHT22;2167;53.448;9.984;2024-03-29T13:46:57;13.50;1.00
4308;DHT22;2167;53.448;9.984;2024-03-29T13:49:24;13.50;1.00
4308;DHT22;2167;53.448;9.984;2024-03-29T13:51:54;13.70;1.00
4308;DHT22;2167;53.448;9.984;2024-03-29T13:54:19;13.90;1.00
4308;DHT22;2167;53.448;9.984;2024-03-29T13:56:45;14.40;1.00
4308;DHT22;2167;53.448;9.984;2024-03-29T13:59:10;14.50;1.00
4308;DHT22;2167;53.448;9.984;2024-03-29T14:01:36;14.50;1.00
4308;DHT22;2167;53.448;9.984;2024-03-29T14:04:02;14.40;1.00
4308;DHT22;2167;53.448;9.984;2024-03-29T14:06:27;14.50;1.00
4308;DHT22;2167;53.448;9.984;2024-03-29T14:08:53;14.30;1.00
4308;DHT22;2167;53.448;9.984;2024-03-29T14:11:19;14.30;1.00
4308;DHT22;2167;53.448;9.984;2024-03-29T14:13:44;14.10;1.00
4308;DHT22;2167;53.448;9.984;2024-03-29T14:16:14;14.00;1.00
4308;DHT22;2167;53.448;9.984;2024-03-29T14:18:40;13.90;1.00
4308;DHT22;2167;53.448;9.984;2024-03-29T14:21:05;13.80;1.00
4308;DHT22;2167;53.448;9.984;2024-03-29T14:23:31;14.00;1.00
4308;DHT22;2167;53.448;9.984;2024-03-29T14:25:57;14.20;1.00
4308;DHT22;2167;53.448;9.984;2024-03-29T14:28:22;14.50;1.00
4308;DHT22;2167;53.448;9.984;2024-03-29T14:30:48;14.70;1.00
4308;DHT22;2167;53.448;9.984;2024-03-29T14:33:13;14.80;1.00
4308;DHT22;2167;53.448;9.984;2024-03-29T14:35:39;14.90;1.00
4308;DHT22;2167;53.448;9.984;2024-03-29T14:38:04;15.00;1.00
4308;DHT22;2167;53.448;9.984;2024-03-29T14:40:30;15.10;1.00
4308;DHT22;2167;53.448;9.984;2024-03-29T14:42:56;15.20;1.00
4308;DHT22;2167;53.448;9.984;2024-03-29T14:45:24;15.30;1.00
4308;DHT22;2167;53.448;9.984;2024-03-29T14:47:50;15.50;1.00
4308;DHT22;2167;53.448;9.984;2024-03-29T14:50:16;15.60;1.00
4308;DHT22;2167;53.448;9.984;2024-03-29T14:52:44;15.60;1.00
4308;DHT22;2167;53.448;9.984;2024-03-29T14:55:09;15.60;1.00
4308;DHT22;2167;53.448;9.984;2024-03-29T14:57:35;15.40;1.00
4308;DHT22;2167;53.448;9.984;2024-03-29T15:00:00;15.20;1.00
4308;DHT22;2167;53.448;9.984;2024-03-29T15:02:26;15.00;1.00
4308;DHT22;2167;53.448;9.984;2024-03-29T15:04:52;14.90;1.00
4308;DHT22;2167;53.448;9.984;2024-03-29T15:07:18;14.90;1.00
4308;DHT22;2167;53.448;9.984;2024-03-29T15:09:44;14.90;1.00
4308;DHT22;2167;53.448;9.984;2024-03-29T15:12:11;14.90;1.00
4308;DHT22;2167;53.448;9.984;2024-03-29T15:14:36;14.80;1.00
4308;DHT22;2167;53.448;9.984;2024-03-29T15:17:02;14.90;1.00
4308;DHT22;2167;53.448;9.984;2024-03-29T15:19:28;14.90;1.00
4308;DHT22;2167;53.448;9.984;2024-03-29T15:21:53;14.90;1.00
4308;DHT22;2167;53.448;9.984;2024-03-29T15:24:22;14.80;1.00
4308;DHT22;2167;53.448;9.984;2024-03-29T15:26:47;14.60;1.00
4308;DHT22;2167;53.448;9.984;2024-03-29T15:29:13;14.50;1.00
4308;DHT22;2167;53.448;9.984;2024-03-29T15:31:41;14.40;1.00
4308;DHT22;2167;53.448;9.984;2024-03-29T15:34:09;14.40;1.00
4308;DHT22;2167;53.448;9.984;2024-03-29T15:36:35;14.30;1.00
4308;DHT22;2167;53.448;9.984;2024-03-29T15:39:02;14.30;1.00
4308;DHT22;2167;53.448;9.984;2024-03-29T15:41:37;14.20;1.00
4308;DHT22;2167;53.448;9.984;2024-03-29T15:44:04;14.20;1.00
4308;DHT22;2167;53.448;9.984;2024-03-29T15:46:30;14.20;1.00
4308;DHT22;2167;53.448;9.984;2024-03-29T15:48:57;14.30;1.00
4308;DHT22;2167;53.448;9.984;2024-03-29T15:51:23;14.40;1.00
4308;DHT22;2167;53.448;9.984;2024-03-29T15:53:49;14.50;1.00
4308;DHT22;2167;53.448;9.984;2024-03-29T15:56:15;14.60;1.00
4308;DHT22;2167;53.448;9.984;2024-03-29T15:58:42;14.50;1.00
4308;DHT22;2167;53.448;9.984;2024-03-29T16:01:08;14.40;1.00
4308;DHT22;2167;53.448;9.984;2024-03-29T16:03:35;14.40;1.00
4308;DHT22;2167;53.448;9.984;2024-03-29T16:06:01;14.40;1.00
4308;DHT22;2167;53.448;9.984;2024-03-29T16:08:27;14.40;1.00
4308;DHT22;2167;53.448;9.984;2024-03-29T16:10:54;14.40;1.00
4308;DHT22;2167;53.448;9.984;2024-03-29T16:13:25;14.40;1.00
4308;DHT22;2167;53.448;9.984;2024-03-29T16:15:51;14.50;1.00
4308;DHT22;2167;53.448;9.984;2024-03-29T16:18:17;14.60;1.00
4308;DHT22;2167;53.448;9.984;2024-03-29T16:20:44;14.70;1.00
4308;DHT22;2167;53.448;9.984;2024-03-29T16:23:10;14.70;1.00